createdAt,value
2023-05-20T00:00:03.230Z,97754.59
2023-05-20T00:02:33.362Z,97758.44
2023-05-20T00:05:01.939Z,97760.94
2023-05-20T00:07:29.875Z,97766.94
2023-05-20T00:09:57.884Z,97771.66
2023-05-20T00:12:26.820Z,97757.97
2023-05-20T00:14:56.036Z,97754.50
2023-05-20T00:17:25.766Z,97757.94
2023-05-20T00:19:53.585Z,97756.88
2023-05-20T00:22:21.709Z,97766.34
2023-05-20T00:24:50.743Z,97761.97
2023-05-20T00:27:18.554Z,97765.16
2023-05-20T00:29:46.448Z,97756.75
2023-05-20T00:32:14.455Z,97753.22
2023-05-20T00:34:43.443Z,97757.56
2023-05-20T00:37:11.203Z,97746.78
2023-05-20T00:39:39.052Z,97743.06
2023-05-20T00:42:07.053Z,97747.94
2023-05-20T00:44:34.825Z,97749.16
2023-05-20T00:47:02.671Z,97756.53
2023-05-20T00:49:30.528Z,97753.16
2023-05-20T00:51:58.732Z,97749.19
2023-05-20T00:54:26.714Z,97750.41
2023-05-20T00:56:54.671Z,97750.22
2023-05-20T00:59:22.444Z,97756.34
2023-05-20T01:01:50.245Z,97753.19
2023-05-20T01:04:18.415Z,97753.81
2023-05-20T01:06:46.325Z,97745.53
2023-05-20T01:09:14.330Z,97755.59
2023-05-20T01:11:48.920Z,97749.50
2023-05-20T01:14:16.783Z,97741.47
2023-05-20T01:16:45.808Z,97741.16
2023-05-20T01:19:44.252Z,97749.22
2023-05-20T01:22:13.352Z,97745.53
2023-05-20T01:24:45.599Z,97734.81
2023-05-20T01:27:13.643Z,97737.63
2023-05-20T01:29:44.307Z,97730.66
2023-05-20T01:32:14.787Z,97735.16
2023-05-20T01:34:43.151Z,97742.34
2023-05-20T01:37:11.318Z,97740.34
2023-05-20T01:39:39.722Z,97742.75
2023-05-20T01:42:07.984Z,97746.44
2023-05-20T01:44:35.907Z,97748.69
2023-05-20T01:47:04.350Z,97750.41
2023-05-20T01:49:32.430Z,97753.97
2023-05-20T01:52:01.264Z,97744.19
2023-05-20T01:54:31.834Z,97743.66
2023-05-20T01:56:59.820Z,97753.78
2023-05-20T01:59:27.697Z,97752.78
2023-05-20T02:01:55.704Z,97760.63
2023-05-20T02:04:24.520Z,97761.78
2023-05-20T02:06:52.507Z,97752.09
2023-05-20T02:09:20.383Z,97752.44
2023-05-20T02:11:48.221Z,97754.06
2023-05-20T02:14:16.020Z,97748.38
2023-05-20T02:16:44.787Z,97751.56
2023-05-20T02:19:14.076Z,97749.16
2023-05-20T02:21:41.960Z,97747.81
2023-05-20T02:24:10.991Z,97746.03
2023-05-20T02:26:38.751Z,97739.88
2023-05-20T02:29:07.455Z,97740.09
2023-05-20T02:31:35.371Z,97741.22
2023-05-20T02:34:05.618Z,97737.78
2023-05-20T02:36:33.424Z,97741.75
2023-05-20T02:39:02.864Z,97739.66
2023-05-20T02:41:32.351Z,97741.00
2023-05-20T02:44:00.482Z,97738.94
2023-05-20T02:46:29.924Z,97737.59
2023-05-20T02:48:57.662Z,97738.84
2023-05-20T02:51:25.671Z,97741.28
2023-05-20T02:53:53.751Z,97733.34
2023-05-20T02:56:21.870Z,97735.81
2023-05-20T02:58:49.742Z,97734.91
2023-05-20T03:01:18.471Z,97749.16
2023-05-20T03:03:47.232Z,97745.31
2023-05-20T03:06:15.325Z,97754.78
2023-05-20T03:08:43.228Z,97757.66
2023-05-20T03:11:11.053Z,97761.19
2023-05-20T03:13:38.800Z,97763.44
2023-05-20T03:16:06.810Z,97768.41
2023-05-20T03:18:36.098Z,97757.91
2023-05-20T03:21:04.259Z,97754.81
2023-05-20T03:23:32.121Z,97751.34
2023-05-20T03:25:59.959Z,97763.28
2023-05-20T03:28:28.700Z,97761.03
2023-05-20T03:30:57.570Z,97761.72
2023-05-20T03:33:26.372Z,97769.31
2023-05-20T03:35:55.101Z,97778.09
2023-05-20T03:38:23.551Z,97787.13
2023-05-20T03:40:51.380Z,97775.56
2023-05-20T03:43:19.180Z,97782.81
2023-05-20T03:45:47.024Z,97776.31
2023-05-20T03:48:15.140Z,97783.00
2023-05-20T03:50:44.236Z,97785.91
2023-05-20T03:53:12.406Z,97780.47
2023-05-20T03:55:42.900Z,97786.69
2023-05-20T03:58:13.763Z,97781.13
2023-05-20T04:00:42.088Z,97783.31
2023-05-20T04:03:10.567Z,97785.47
2023-05-20T04:05:38.736Z,97791.50
2023-05-20T04:08:16.419Z,97793.06
2023-05-20T04:10:44.384Z,97797.66
2023-05-20T04:13:13.083Z,97796.47
2023-05-20T04:15:41.988Z,97795.69
2023-05-20T04:18:10.557Z,97796.41
2023-05-20T04:20:41.488Z,97800.66
2023-05-20T04:23:12.287Z,97798.63
2023-05-20T04:25:42.334Z,97800.53
2023-05-20T04:28:10.846Z,97795.47
2023-05-20T04:30:38.713Z,97803.34
2023-05-20T04:33:07.014Z,97797.13
2023-05-20T04:35:37.635Z,97801.66
2023-05-20T04:38:07.954Z,97797.81
2023-05-20T04:40:35.756Z,97795.69
2023-05-20T04:43:04.091Z,97799.81
2023-05-20T04:45:33.852Z,97793.63
2023-05-20T04:48:04.017Z,97799.13
2023-05-20T04:50:31.970Z,97806.00
2023-05-20T04:53:00.590Z,97796.06
2023-05-20T04:55:29.997Z,97808.28
2023-05-20T04:57:57.756Z,97805.91
2023-05-20T05:00:28.004Z,97800.34
2023-05-20T05:02:56.497Z,97800.63
2023-05-20T05:05:24.387Z,97789.50
2023-05-20T05:07:52.440Z,97795.59
2023-05-20T05:10:21.883Z,97794.44
2023-05-20T05:12:49.787Z,97790.91
2023-05-20T05:15:17.802Z,97796.19
2023-05-20T05:17:45.947Z,97793.13
2023-05-20T05:20:15.323Z,97772.31
2023-05-20T05:22:44.257Z,97766.66
2023-05-20T05:25:12.198Z,97775.88
2023-05-20T05:27:41.578Z,97776.34
2023-05-20T05:30:10.351Z,97770.44
2023-05-20T05:32:39.047Z,97765.94
2023-05-20T05:35:08.241Z,97763.16
2023-05-20T05:37:36.634Z,97758.63
2023-05-20T05:40:07.076Z,97760.41
2023-05-20T05:42:37.168Z,97755.38
2023-05-20T05:45:07.507Z,97760.31
2023-05-20T05:47:35.590Z,97755.69
2023-05-20T05:50:04.090Z,97756.47
2023-05-20T05:52:35.257Z,97762.00
2023-05-20T05:55:05.223Z,97754.63
2023-05-20T05:57:33.146Z,97761.03
2023-05-20T06:00:03.100Z,97752.19
2023-05-20T06:02:36.456Z,97759.28
2023-05-20T06:05:05.159Z,97753.81
2023-05-20T06:07:32.916Z,97762.28
2023-05-20T06:10:00.761Z,97756.66
2023-05-20T06:12:28.873Z,97757.50
2023-05-20T06:14:57.839Z,97761.88
2023-05-20T06:17:25.696Z,97769.53
2023-05-20T06:19:53.786Z,97775.31
2023-05-20T06:22:22.742Z,97774.75
2023-05-20T06:24:50.552Z,97774.91
2023-05-20T06:27:18.958Z,97765.19
2023-05-20T06:29:47.206Z,97771.41
2023-05-20T06:32:15.390Z,97771.81
2023-05-20T06:34:43.807Z,97765.28
2023-05-20T06:37:11.771Z,97764.59
2023-05-20T06:39:40.024Z,97756.66
2023-05-20T06:42:08.788Z,97765.34
2023-05-20T06:44:37.699Z,97754.50
2023-05-20T06:47:28.864Z,97739.03
2023-05-20T06:49:56.809Z,97741.41
2023-05-20T06:52:24.593Z,97737.06
2023-05-20T06:54:54.408Z,97736.06
2023-05-20T06:57:23.967Z,97726.63
2023-05-20T06:59:51.709Z,97727.97
2023-05-20T07:02:22.865Z,97732.88
2023-05-20T07:04:52.108Z,97728.38
2023-05-20T07:07:19.985Z,97728.91
2023-05-20T07:09:48.167Z,97737.41
2023-05-20T07:12:17.318Z,97731.19
2023-05-20T07:14:45.089Z,97728.38
2023-05-20T07:17:13.574Z,97720.53
2023-05-20T07:19:41.456Z,97728.97
2023-05-20T07:22:09.576Z,97721.56
2023-05-20T07:24:56.299Z,97717.78
2023-05-20T07:27:24.302Z,97718.06
2023-05-20T07:29:52.168Z,97714.75
2023-05-20T07:32:20.168Z,97715.91
2023-05-20T07:34:48.519Z,97702.41
2023-05-20T07:37:16.836Z,97699.09
2023-05-20T07:39:44.950Z,97707.72
2023-05-20T07:42:13.721Z,97697.69
2023-05-20T07:44:45.566Z,97691.84
2023-05-20T07:47:14.489Z,97693.59
2023-05-20T07:49:44.453Z,97691.88
2023-05-20T07:52:12.416Z,97682.16
2023-05-20T07:54:41.738Z,97685.38
2023-05-20T07:57:09.733Z,97680.66
2023-05-20T07:59:37.589Z,97694.09
2023-05-20T08:02:06.228Z,97678.22
2023-05-20T08:04:35.369Z,97691.47
2023-05-20T08:07:03.548Z,97693.41
2023-05-20T08:09:43.316Z,97687.13
2023-05-20T08:12:12.149Z,97680.53
2023-05-20T08:14:41.525Z,97673.94
2023-05-20T08:17:09.880Z,97679.69
2023-05-20T08:19:38.287Z,97677.72
2023-05-20T08:22:08.753Z,97678.13
2023-05-20T08:24:36.680Z,97672.03
2023-05-20T08:27:05.409Z,97667.06
2023-05-20T08:29:34.369Z,97657.69
2023-05-20T08:32:02.507Z,97651.84
2023-05-20T08:34:30.291Z,97652.16
2023-05-20T08:36:58.155Z,97655.88
2023-05-20T08:39:27.127Z,97658.19
2023-05-20T08:41:56.519Z,97655.00
2023-05-20T08:44:24.314Z,97657.88
2023-05-20T08:46:52.606Z,97650.09
2023-05-20T08:49:20.618Z,97660.44
2023-05-20T08:51:49.284Z,97655.84
2023-05-20T08:54:19.163Z,97655.06
2023-05-20T08:56:48.378Z,97647.56
2023-05-20T08:59:16.258Z,97637.72
2023-05-20T09:01:44.711Z,97641.03
2023-05-20T09:04:12.669Z,97637.13
2023-05-20T09:06:45.654Z,97634.59
2023-05-20T09:09:14.507Z,97640.59
2023-05-20T09:11:42.781Z,97638.72
2023-05-20T09:14:10.945Z,97634.88
2023-05-20T09:16:40.318Z,97638.19
2023-05-20T09:19:10.234Z,97627.88
2023-05-20T09:21:38.930Z,97632.03
2023-05-20T09:24:07.204Z,97620.66
2023-05-20T09:26:35.056Z,97622.44
2023-05-20T09:29:02.834Z,97622.53
2023-05-20T09:31:34.145Z,97618.13
2023-05-20T09:34:02.229Z,97613.44
2023-05-20T09:36:31.881Z,97619.47
2023-05-20T09:39:05.237Z,97617.53
2023-05-20T09:41:50.697Z,97613.53
2023-05-20T09:44:18.726Z,97618.25
2023-05-20T09:46:46.515Z,97613.44
2023-05-20T09:49:16.458Z,97610.63
2023-05-20T09:51:44.424Z,97612.94
2023-05-20T09:54:12.881Z,97608.00
2023-05-20T09:56:41.815Z,97592.78
2023-05-20T09:59:09.628Z,97609.81
2023-05-20T10:01:37.601Z,97600.69
2023-05-20T10:04:06.885Z,97599.69
2023-05-20T10:06:47.719Z,97594.81
2023-05-20T10:09:45.823Z,97592.41
2023-05-20T10:12:35.172Z,97587.25
2023-05-20T10:15:24.591Z,97594.56
2023-05-20T10:18:01.607Z,97591.22
2023-05-20T10:20:29.507Z,97581.66
2023-05-20T10:23:00.753Z,97577.28
2023-05-20T10:25:29.958Z,97583.53
2023-05-20T10:28:07.913Z,97578.19
2023-05-20T10:30:36.382Z,97583.28
2023-05-20T10:33:05.880Z,97576.59
2023-05-20T10:35:33.742Z,97577.94
2023-05-20T10:38:10.437Z,97576.75
2023-05-20T10:40:38.647Z,97569.28
2023-05-20T10:43:30.839Z,97560.31
2023-05-20T10:46:00.248Z,97560.31
2023-05-20T10:48:31.620Z,97554.47
2023-05-20T10:51:03.937Z,97557.56
2023-05-20T10:53:41.816Z,97561.66
2023-05-20T10:56:19.238Z,97553.63
2023-05-20T10:58:47.044Z,97552.41
2023-05-20T11:01:15.645Z,97568.66
2023-05-20T11:03:48.782Z,97557.66
2023-05-20T11:06:21.287Z,97566.13
2023-05-20T11:08:49.373Z,97578.59
2023-05-20T11:11:17.173Z,97564.47
2023-05-20T11:13:46.380Z,97545.50
2023-05-20T11:16:14.139Z,97560.66
2023-05-20T11:18:42.010Z,97547.81
2023-05-20T11:21:10.019Z,97559.53
2023-05-20T11:23:40.486Z,97548.69
2023-05-20T11:26:08.938Z,97547.56
2023-05-20T11:28:36.762Z,97548.22
2023-05-20T11:31:04.717Z,97557.75
2023-05-20T11:33:32.469Z,97595.81
2023-05-20T11:36:02.515Z,97582.63
2023-05-20T11:38:31.594Z,97597.81
2023-05-20T11:40:59.781Z,97595.78
2023-05-20T11:43:27.796Z,97597.84
2023-05-20T11:45:57.659Z,97600.06
2023-05-20T11:48:25.792Z,97608.22
2023-05-20T11:50:56.621Z,97593.81
2023-05-20T11:53:25.622Z,97593.69
2023-05-20T11:55:55.158Z,97591.38
2023-05-20T11:58:23.468Z,97579.28
2023-05-20T12:00:56.761Z,97581.94
2023-05-20T12:03:30.208Z,97568.53
2023-05-20T12:05:58.064Z,97565.19
2023-05-20T12:08:25.891Z,97559.28
2023-05-20T12:10:53.668Z,97569.47
2023-05-20T12:13:23.323Z,97556.28
2023-05-20T12:15:51.091Z,97567.94
2023-05-20T12:18:18.986Z,97559.06
2023-05-20T12:20:46.811Z,97563.75
2023-05-20T12:23:14.668Z,97545.22
2023-05-20T12:25:42.805Z,97552.06
2023-05-20T12:28:10.660Z,97533.44
2023-05-20T12:30:40.346Z,97535.69
2023-05-20T12:33:09.435Z,97526.72
2023-05-20T12:35:39.232Z,97520.41
2023-05-20T12:38:08.281Z,97516.59
2023-05-20T12:40:36.637Z,97512.84
2023-05-20T12:43:05.144Z,97513.34
2023-05-20T12:45:32.917Z,97510.63
2023-05-20T12:48:00.939Z,97515.13
2023-05-20T12:50:28.790Z,97504.16
2023-05-20T12:52:56.649Z,97494.28
2023-05-20T12:55:25.817Z,97488.41
2023-05-20T12:57:54.771Z,97480.00
2023-05-20T13:00:22.556Z,97474.00
2023-05-20T13:02:50.481Z,97461.81
2023-05-20T13:05:18.509Z,97467.75
2023-05-20T13:07:46.585Z,97454.00
2023-05-20T13:10:14.857Z,97458.25
2023-05-20T13:12:46.070Z,97450.66
2023-05-20T13:15:16.854Z,97450.00
2023-05-20T13:17:44.858Z,97450.53
2023-05-20T13:20:13.170Z,97448.56
2023-05-20T13:22:40.974Z,97434.13
2023-05-20T13:25:09.582Z,97443.78
2023-05-20T13:27:37.335Z,97423.13
2023-05-20T13:30:06.907Z,97420.41
2023-05-20T13:32:35.604Z,97417.88
2023-05-20T13:35:06.375Z,97406.00
2023-05-20T13:37:34.385Z,97405.31
2023-05-20T13:40:02.198Z,97395.03
2023-05-20T13:42:30.067Z,97398.00
2023-05-20T13:44:57.977Z,97389.31
2023-05-20T13:47:26.988Z,97390.09
2023-05-20T13:49:54.862Z,97395.34
2023-05-20T13:52:22.709Z,97392.00
2023-05-20T13:54:50.531Z,97390.78
2023-05-20T13:57:18.296Z,97387.22
2023-05-20T13:59:46.301Z,97388.47
2023-05-20T14:02:15.197Z,97380.88
2023-05-20T14:04:46.991Z,97378.91
2023-05-20T14:07:14.999Z,97385.22
2023-05-20T14:09:42.837Z,97388.69
2023-05-20T14:12:10.829Z,97386.22
2023-05-20T14:14:38.646Z,97385.28
2023-05-20T14:17:07.944Z,97368.56
2023-05-20T14:19:36.140Z,97360.00
2023-05-20T14:22:04.237Z,97367.63
2023-05-20T14:24:32.099Z,97360.47
2023-05-20T14:27:00.331Z,97359.09
2023-05-20T14:29:28.289Z,97359.31
2023-05-20T14:31:56.243Z,97342.91
2023-05-20T14:34:24.109Z,97346.69
2023-05-20T14:36:51.917Z,97347.19
2023-05-20T14:39:19.898Z,97345.59
2023-05-20T14:41:48.723Z,97347.94
2023-05-20T14:44:16.687Z,97346.22
2023-05-20T14:46:44.504Z,97347.03
2023-05-20T14:49:12.369Z,97355.53
2023-05-20T14:51:42.347Z,97354.41
2023-05-20T14:54:10.467Z,97350.69
2023-05-20T14:56:38.252Z,97359.88
2023-05-20T14:59:06.009Z,97353.47
2023-05-20T15:01:35.734Z,97351.31
2023-05-20T15:04:03.670Z,97338.53
2023-05-20T15:06:33.584Z,97345.69
2023-05-20T15:09:01.900Z,97347.59
2023-05-20T15:11:29.734Z,97350.09
2023-05-20T15:13:58.860Z,97338.41
2023-05-20T15:16:28.308Z,97335.56
2023-05-20T15:18:56.650Z,97343.53
2023-05-20T15:21:24.488Z,97333.00
2023-05-20T15:23:52.357Z,97338.44
2023-05-20T15:26:21.814Z,97335.94
2023-05-20T15:28:49.531Z,97333.97
2023-05-20T15:31:17.423Z,97344.53
2023-05-20T15:33:45.419Z,97348.63
2023-05-20T15:36:14.576Z,97341.97
2023-05-20T15:38:44.099Z,97346.94
2023-05-20T15:41:13.573Z,97344.63
2023-05-20T15:43:42.294Z,97343.56
2023-05-20T15:46:12.985Z,97339.72
2023-05-20T15:48:41.210Z,97339.97
2023-05-20T15:51:08.996Z,97337.53
2023-05-20T15:53:38.124Z,97335.72
2023-05-20T15:56:08.385Z,97323.28
2023-05-20T15:58:36.198Z,97332.50
2023-05-20T16:01:06.802Z,97326.69
2023-05-20T16:03:35.607Z,97330.13
2023-05-20T16:06:04.879Z,97337.75
2023-05-20T16:08:34.156Z,97336.19
2023-05-20T16:11:02.327Z,97339.22
2023-05-20T16:13:30.201Z,97340.03
2023-05-20T16:15:58.109Z,97342.88
2023-05-20T16:18:29.685Z,97349.72
2023-05-20T16:20:57.854Z,97344.53
2023-05-20T16:23:25.700Z,97351.41
2023-05-20T16:25:53.484Z,97348.16
2023-05-20T16:28:22.493Z,97347.66
2023-05-20T16:30:50.319Z,97340.09
2023-05-20T16:33:18.168Z,97344.59
2023-05-20T16:35:45.964Z,97345.03
2023-05-20T16:38:13.805Z,97339.50
2023-05-20T16:40:42.706Z,97337.59
2023-05-20T16:43:10.609Z,97346.34
2023-05-20T16:45:38.696Z,97341.56
2023-05-20T16:48:06.733Z,97334.97
2023-05-20T16:50:34.710Z,97328.19
2023-05-20T16:53:03.009Z,97341.66
2023-05-20T16:55:31.086Z,97337.34
2023-05-20T16:57:58.905Z,97347.59
2023-05-20T17:00:26.740Z,97345.75
2023-05-20T17:02:54.587Z,97343.56
2023-05-20T17:05:22.459Z,97336.03
2023-05-20T17:07:51.057Z,97348.75
2023-05-20T17:10:18.980Z,97350.59
2023-05-20T17:12:47.462Z,97353.59
2023-05-20T17:15:15.367Z,97357.56
2023-05-20T17:17:43.238Z,97370.53
2023-05-20T17:20:11.432Z,97370.88
2023-05-20T17:22:39.746Z,97375.69
2023-05-20T17:25:07.906Z,97377.75
2023-05-20T17:27:37.158Z,97396.53
2023-05-20T17:30:07.073Z,97401.19
2023-05-20T17:32:34.940Z,97414.00
2023-05-20T17:35:02.913Z,97439.84
2023-05-20T17:37:31.529Z,97437.47
2023-05-20T17:39:59.382Z,97453.94
2023-05-20T17:42:27.177Z,97456.94
2023-05-20T17:44:55.005Z,97465.72
2023-05-20T17:47:22.756Z,97472.47
2023-05-20T17:49:50.604Z,97474.44
2023-05-20T17:52:20.663Z,97476.22
2023-05-20T17:54:48.501Z,97481.63
2023-05-20T17:57:17.518Z,97481.31
2023-05-20T17:59:46.620Z,97492.09
2023-05-20T18:02:15.356Z,97475.06
2023-05-20T18:04:43.287Z,97471.78
2023-05-20T18:07:13.025Z,97468.13
2023-05-20T18:09:40.984Z,97464.59
2023-05-20T18:12:09.752Z,97468.56
2023-05-20T18:14:38.064Z,97470.91
2023-05-20T18:17:05.956Z,97474.78
2023-05-20T18:19:33.888Z,97485.16
2023-05-20T18:22:02.803Z,97475.31
2023-05-20T18:24:31.102Z,97474.25
2023-05-20T18:26:58.813Z,97468.53
2023-05-20T18:29:27.166Z,97460.75
2023-05-20T18:31:54.962Z,97451.84
2023-05-20T18:34:23.122Z,97439.88
2023-05-20T18:36:50.942Z,97453.97
2023-05-20T18:39:21.687Z,97461.22
2023-05-20T18:41:49.613Z,97463.84
2023-05-20T18:44:18.006Z,97459.69
2023-05-20T18:46:46.199Z,97469.34
2023-05-20T18:49:13.901Z,97480.06
2023-05-20T18:51:41.932Z,97493.09
2023-05-20T18:54:09.775Z,97487.75
2023-05-20T18:56:37.859Z,97491.78
2023-05-20T18:59:06.661Z,97508.06
2023-05-20T19:01:36.542Z,97490.97
2023-05-20T19:04:06.127Z,97492.00
2023-05-20T19:06:37.630Z,97484.16
2023-05-20T19:09:06.362Z,97484.75
2023-05-20T19:11:34.252Z,97492.84
2023-05-20T19:14:02.284Z,97484.47
2023-05-20T19:16:30.105Z,97486.03
2023-05-20T19:18:57.909Z,97492.31
2023-05-20T19:21:26.720Z,97486.03
2023-05-20T19:23:54.879Z,97489.38
2023-05-20T19:26:22.629Z,97487.84
2023-05-20T19:28:50.526Z,97495.69
2023-05-20T19:31:22.462Z,97485.78
2023-05-20T19:33:56.471Z,97485.28
2023-05-20T19:36:27.716Z,97486.81
2023-05-20T19:38:58.368Z,97491.50
2023-05-20T19:41:26.081Z,97492.19
2023-05-20T19:43:53.941Z,97491.91
2023-05-20T19:46:21.775Z,97490.38
2023-05-20T19:48:51.060Z,97484.91
2023-05-20T19:51:19.188Z,97493.47
2023-05-20T19:53:47.403Z,97497.66
2023-05-20T19:56:19.742Z,97498.66
2023-05-20T19:58:49.765Z,97504.72
2023-05-20T20:01:17.666Z,97497.66
2023-05-20T20:03:46.096Z,97483.59
2023-05-20T20:06:14.430Z,97499.19
2023-05-20T20:08:45.739Z,97494.78
2023-05-20T20:11:13.653Z,97484.56
2023-05-20T20:13:43.923Z,97488.75
2023-05-20T20:16:12.159Z,97489.03
2023-05-20T20:18:40.246Z,97491.66
2023-05-20T20:21:09.317Z,97497.63
2023-05-20T20:23:38.014Z,97486.69
2023-05-20T20:26:07.662Z,97484.03
2023-05-20T20:28:36.837Z,97479.03
2023-05-20T20:31:05.741Z,97483.91
2023-05-20T20:33:33.702Z,97477.69
2023-05-20T20:36:02.511Z,97482.03
2023-05-20T20:38:30.255Z,97480.78
2023-05-20T20:40:59.303Z,97489.72
2023-05-20T20:43:28.973Z,97477.03
2023-05-20T20:45:56.858Z,97474.97
2023-05-20T20:48:27.125Z,97475.47
2023-05-20T20:50:55.626Z,97467.38
2023-05-20T20:53:23.598Z,97477.19
2023-05-20T20:55:52.399Z,97474.31
2023-05-20T20:58:20.268Z,97467.09
2023-05-20T21:00:48.764Z,97472.44
2023-05-20T21:03:17.175Z,97472.84
2023-05-20T21:05:48.553Z,97476.84
2023-05-20T21:08:16.499Z,97472.69
2023-05-20T21:10:45.931Z,97466.72
2023-05-20T21:13:14.065Z,97474.25
2023-05-20T21:15:43.096Z,97471.91
2023-05-20T21:18:11.477Z,97463.28
2023-05-20T21:20:39.198Z,97470.97
2023-05-20T21:23:07.057Z,97467.47
2023-05-20T21:25:35.635Z,97470.66
2023-05-20T21:28:03.661Z,97466.91
2023-05-20T21:30:32.916Z,97471.63
2023-05-20T21:33:00.804Z,97469.34
2023-05-20T21:35:29.065Z,97471.16
2023-05-20T21:37:57.367Z,97458.22
2023-05-20T21:40:25.143Z,97452.50
2023-05-20T21:42:53.138Z,97455.97
2023-05-20T21:45:20.856Z,97465.38
2023-05-20T21:47:49.047Z,97462.84
2023-05-20T21:50:16.931Z,97454.13
2023-05-20T21:52:45.332Z,97453.97
2023-05-20T21:55:13.128Z,97447.50
2023-05-20T21:57:41.028Z,97437.03
2023-05-20T22:00:15.644Z,97442.94
2023-05-20T22:02:43.577Z,97452.97
2023-05-20T22:05:14.414Z,97452.75
2023-05-20T22:07:44.000Z,97454.84
2023-05-20T22:10:13.667Z,97450.13
2023-05-20T22:12:44.535Z,97452.56
2023-05-20T22:15:13.331Z,97440.41
2023-05-20T22:17:41.731Z,97444.03
2023-05-20T22:20:11.282Z,97443.09
2023-05-20T22:22:39.299Z,97442.47
2023-05-20T22:25:08.453Z,97429.97
2023-05-20T22:27:36.292Z,97432.38
2023-05-20T22:30:06.186Z,97431.19
2023-05-20T22:32:34.775Z,97427.66
2023-05-20T22:35:03.850Z,97425.78
2023-05-20T22:37:32.657Z,97421.00
2023-05-20T22:40:00.637Z,97424.50
2023-05-20T22:42:30.425Z,97423.50
2023-05-20T22:44:59.136Z,97419.75
2023-05-20T22:47:27.084Z,97415.53
2023-05-20T22:49:54.901Z,97410.28
2023-05-20T22:52:25.371Z,97415.75
2023-05-20T22:54:54.566Z,97420.66
2023-05-20T22:57:22.923Z,97415.16
2023-05-20T22:59:52.058Z,97416.75
2023-05-20T23:02:19.920Z,97417.09
2023-05-20T23:04:48.722Z,97416.72
2023-05-20T23:07:19.083Z,97407.03
2023-05-20T23:09:48.469Z,97411.28
2023-05-20T23:12:16.324Z,97403.31
2023-05-20T23:14:44.076Z,97407.31
2023-05-20T23:17:11.879Z,97392.72
2023-05-20T23:19:39.726Z,97399.41
2023-05-20T23:22:07.681Z,97394.22
2023-05-20T23:24:36.331Z,97391.97
2023-05-20T23:27:04.578Z,97384.56
2023-05-20T23:29:32.333Z,97385.59
2023-05-20T23:32:00.130Z,97380.69
2023-05-20T23:34:30.788Z,97378.34
2023-05-20T23:36:58.583Z,97369.38
2023-05-20T23:39:26.410Z,97375.38
2023-05-20T23:41:54.154Z,97382.00
2023-05-20T23:44:22.066Z,97374.84
2023-05-20T23:46:51.088Z,97375.06
2023-05-20T23:49:24.359Z,97359.38
2023-05-20T23:51:52.873Z,97360.66
2023-05-20T23:54:20.656Z,97348.03
2023-05-20T23:56:48.800Z,97348.53
2023-05-20T23:59:16.627Z,97340.75
